Airfield :







YOU CAN JOIN US ON...

 
LOGIN :

Register | Disclaimer

   EN    FR    IT 

 









Legend :    VFR   Marginal VFR   IFR   Intensive IFR   Very Intensive IFR
Visi :
Ceiling :
>= 8 km
>= 3000ft
5 to 8 km
1000 to 3000 ft
1500m to 5 km
500 to 1000 ft
800 to 1500m
200 to 500 ft
< 800m
< 200 ft
Symbols :   Thunderstorms  Fog  Heavy snow  Heavy precipitations  Wind > 20 kt







- Airport Elevation : 461 ft
- IATA code : YYT


CYYT - St John's Int

CURRENT METAR :
  • 201900Z 02015KT 15SM BKN019 14/09 A2964 RMK SC5 SLP040 DENSITY ALT 800FT

EXPIRED METARs :
  • 201800Z 03014G19KT 15SM BKN022 14/10 A2962 RMK SC5 SLP034 DENSITY ALT 800FT
  • 201716Z 03012G18KT 15SM BKN021 14/09 A2962 RMK SC6 WSHFT 1700 SLP034 DENSITY ALT 900FT
  • 201700Z 35013G19KT 340V040 15SM BKN027 14/09 A2962 RMK SC6 SLP034 DENSITY ALT 900FT

TAF TAF CYYT
Valid from the 20 at 18:00 until the 21 at 18:00 UTC


201738Z 2018/2118 01012G22KT P6SM BKN020
TEMPO 2018/2022 SCT020 BKN030
FM202200 36010G20KT P6SM SCT008 BKN015
TEMPO 2022/2024 5SM BR BKN008 OVC015
FM210000 01008KT 5SM BR OVC004
TEMPO 2100/2106 6SM BR FEW004 OVC010
PROB30 2100/2106 2SM BR OVC003
FM210600 VRB03KT P6SM BKN006
PROB30 2106/2111 2SM BR OVC003
FM211100 14010KT P6SM FEW006 BKN015
FM211600 15012KT 5SM -RA BR OVC005 RMK NXT FCST BY 210000Z
CZQX FIR / North America



MET'MAP, your aeronautical weather chart ! - Copyright ORBIFLY December 2007 - Disclaimer

ORBIFLY MET'MAP TEAM :

Programming & Development : Alexandra Zaïnal
Concept & Development : Baudouin d'Aumeries
Co-Development & Prog : Marc-Olivier Méhu
Technical & hardware support : Manuel Goepfert

Contact : metmap@orbifly.com




SOURCES & CREDITS :

   NOAA